Time;durP1;ratioP1;P1;durP2;ratioP2;P2;SDS_P1;SDS_P2;PMS_P1;PMS_P2;Temp;Humidity;BMP_temperature;BMP_pressure;BME280_temperature;BME280_humidity;BME280_pressure;Samples;Min_cycle;Max_cycle;Signal;HPM_P1;HPM_P2
2022/04/14 00:02:01;;;;;;;4.60;4.40;;;;;;;11.87;97.48;101391.25;6087779;23;20022;-73
2022/04/14 00:04:27;;;;;;;5.95;5.50;;;;;;;12.46;98.18;101503.41;6082277;23;20929;-73
2022/04/14 00:06:54;;;;;;;5.18;4.78;;;;;;;12.37;98.60;101491.53;6115059;23;20426;-73
2022/04/14 00:09:20;;;;;;;6.63;6.32;;;;;;;12.02;98.83;101442.31;6074156;23;20026;-73
2022/04/14 00:11:47;;;;;;;5.20;4.90;;;;;;;12.69;98.61;101541.81;6113476;23;20045;-73
2022/04/14 00:14:13;;;;;;;6.30;5.80;;;;;;;12.71;98.79;101547.03;6086719;23;20102;-73
2022/04/14 00:16:39;;;;;;;5.15;4.85;;;;;;;12.68;99.70;101542.72;6088390;23;20021;-73
2022/04/14 00:19:07;;;;;;;4.70;4.50;;;;;;;12.68;99.34;101541.88;6090416;23;20026;-73
2022/04/14 00:21:34;;;;;;;5.57;5.32;;;;;;;12.68;99.34;101541.88;6083162;23;20025;-73
2022/04/14 00:24:00;;;;;;;5.72;5.40;;;;;;;12.51;99.98;101511.09;6085408;23;20025;-73
2022/04/14 00:26:26;;;;;;;7.22;6.82;;;;;;;11.96;100.00;101427.66;6076202;23;20026;-73
2022/04/14 00:28:53;;;;;;;5.60;5.20;;;;;;;12.02;100.00;101453.69;6086848;23;20460;-73
2022/04/14 00:31:19;;;;;;;7.68;7.20;;;;;;;12.35;100.00;101510.97;6095150;23;20035;-73
2022/04/14 00:33:46;;;;;;;5.55;5.22;;;;;;;12.32;100.00;101505.81;6066350;23;20610;-73
2022/04/14 00:36:13;;;;;;;6.35;6.05;;;;;;;11.38;100.00;101355.78;6087159;23;20034;-73
2022/04/14 00:38:40;;;;;;;5.30;4.90;;;;;;;12.13;100.00;101483.00;6064107;23;20020;-73
2022/04/14 00:41:07;;;;;;;5.20;5.00;;;;;;;12.43;100.00;101531.63;6090568;23;20542;-73
2022/04/14 00:43:35;;;;;;;5.28;5.00;;;;;;;12.40;100.00;101535.28;6088557;23;20607;-73
2022/04/14 00:46:02;;;;;;;4.95;4.75;;;;;;;11.66;100.00;101427.25;6061137;23;20121;-74
2022/04/14 00:48:30;;;;;;;5.25;4.95;;;;;;;12.27;100.00;101534.16;6075314;23;20143;-73
2022/04/14 00:50:57;;;;;;;4.70;4.50;;;;;;;11.69;100.00;101430.63;6088886;23;20029;-73
2022/04/14 00:53:24;;;;;;;6.80;6.43;;;;;;;11.90;100.00;101475.28;6071408;23;20021;-73
2022/04/14 00:55:51;;;;;;;5.95;5.65;;;;;;;12.11;100.00;101510.31;6089872;23;20033;-72
2022/04/14 00:58:19;;;;;;;6.75;6.40;;;;;;;11.89;100.00;101473.59;6075794;23;20024;-73
2022/04/14 01:00:46;;;;;;;4.65;4.45;;;;;;;12.21;100.00;101526.50;6091258;23;20105;-72
2022/04/14 01:03:14;;;;;;;6.25;5.85;;;;;;;12.07;100.00;101498.22;6081274;23;20014;-72
2022/04/14 01:05:42;;;;;;;5.25;4.95;;;;;;;12.27;100.00;101528.88;6087156;23;21751;-73
2022/04/14 01:08:09;;;;;;;7.80;5.20;;;;;;;10.53;100.00;101234.34;6093434;23;20676;-72
2022/04/14 01:10:36;;;;;;;5.65;5.15;;;;;;;12.23;100.00;101520.28;6072932;23;20018;-72
2022/04/14 01:13:03;;;;;;;5.35;5.05;;;;;;;12.24;100.00;101527.22;6088711;23;20049;-72
2022/04/14 01:15:30;;;;;;;5.57;5.30;;;;;;;11.80;100.00;101448.53;6058799;23;20100;-73
2022/04/14 01:17:56;;;;;;;5.13;4.90;;;;;;;12.20;100.00;101528.28;6087231;23;20029;-73
2022/04/14 01:20:23;;;;;;;7.15;6.75;;;;;;;11.80;100.00;101463.47;6087210;23;20016;-73
2022/04/14 01:22:57;;;;;;;4.97;4.72;;;;;;;12.12;100.00;101530.44;6083756;23;20038;-74
2022/04/14 01:25:25;;;;;;;7.55;7.15;;;;;;;12.09;100.00;101528.78;6080872;23;20010;-73
2022/04/14 01:27:52;;;;;;;5.32;4.95;;;;;;;11.79;100.00;101491.53;6087856;23;20034;-73
2022/04/14 01:30:19;;;;;;;7.20;6.80;;;;;;;12.03;100.00;101528.19;6080480;23;20081;-73
2022/04/14 01:32:47;;;;;;;6.35;5.85;;;;;;;12.01;100.00;101538.81;6092540;23;20022;-73
2022/04/14 01:35:13;;;;;;;5.97;5.68;;;;;;;11.50;100.00;101462.09;6082787;23;20596;-73
2022/04/14 01:37:39;;;;;;;4.78;4.55;;;;;;;11.98;100.00;101531.88;6106365;23;20072;-73
2022/04/14 01:40:07;;;;;;;4.78;4.57;;;;;;;11.82;100.00;101514.22;6080124;23;20057;-73
2022/04/14 01:42:35;;;;;;;5.88;5.57;;;;;;;11.48;100.00;101457.84;6088086;23;20093;-73
2022/04/14 01:45:09;;;;;;;5.43;5.13;;;;;;;11.88;100.00;101522.66;6087221;23;20034;-73
2022/04/14 01:47:45;;;;;;;5.40;5.13;;;;;;;12.05;100.00;101550.06;6086647;23;20114;-73
2022/04/14 01:50:14;;;;;;;5.82;5.43;;;;;;;11.61;100.00;101485.31;6091046;23;20026;-72
2022/04/14 01:52:44;;;;;;;5.20;5.00;;;;;;;11.95;100.00;101562.75;6111789;23;20028;-72
2022/04/14 01:55:11;;;;;;;6.03;5.72;;;;;;;11.66;100.00;101537.69;6086109;23;20026;-73
2022/04/14 01:57:37;;;;;;;5.03;4.72;;;;;;;11.77;100.00;101553.88;6059719;23;20013;-73
2022/04/14 02:00:07;;;;;;;4.95;4.75;;;;;;;11.77;100.00;101562.59;6085587;23;20029;-72
2022/04/14 02:02:34;;;;;;;4.78;4.50;;;;;;;11.67;100.00;101531.53;6080689;23;20014;-73
2022/04/14 02:05:01;;;;;;;6.35;5.95;;;;;;;11.64;100.00;101531.63;6058094;23;20521;-73
2022/04/14 02:07:27;;;;;;;5.95;5.65;;;;;;;11.51;100.00;101508.50;6091026;23;20056;-73
2022/04/14 02:09:54;;;;;;;5.57;5.28;;;;;;;11.22;100.00;101440.59;6090220;23;20010;-73
2022/04/14 02:12:20;;;;;;;6.68;6.32;;;;;;;11.65;100.00;101502.66;6079442;23;20617;-73
2022/04/14 02:14:46;;;;;;;5.43;5.13;;;;;;;11.29;100.00;101436.78;6079707;23;20076;-73
2022/04/14 02:17:13;;;;;;;7.03;6.63;;;;;;;11.97;100.00;101537.25;6084507;23;20030;-72
2022/04/14 02:19:39;;;;;;;5.18;4.78;;;;;;;12.00;100.00;101537.09;6056845;23;20085;-72
2022/04/14 02:22:05;;;;;;;6.78;6.28;;;;;;;11.75;100.00;101492.59;6068450;23;20016;-73
2022/04/14 02:24:32;;;;;;;5.63;5.32;;;;;;;12.03;100.00;101550.13;6099223;23;20725;-74
2022/04/14 02:26:58;;;;;;;5.38;5.07;;;;;;;11.86;100.00;101500.84;6104670;23;20038;-74
2022/04/14 02:29:25;;;;;;;6.78;6.47;;;;;;;12.06;100.00;101533.34;6093263;23;20020;-75
2022/04/14 02:31:57;;;;;;;6.32;5.90;;;;;;;12.02;100.00;101543.13;6097647;23;20541;-75
2022/04/14 02:34:26;;;;;;;6.80;6.50;;;;;;;11.65;100.00;101459.75;6079961;23;20014;-74
2022/04/14 02:36:53;;;;;;;4.90;4.70;;;;;;;12.08;100.00;101531.50;6110305;23;20026;-74
2022/04/14 02:39:20;;;;;;;6.80;6.40;;;;;;;12.07;100.00;101528.00;6097972;23;20037;-74
2022/04/14 02:41:46;;;;;;;5.00;4.70;;;;;;;12.08;100.00;101524.44;6108594;23;20084;-75
2022/04/14 02:44:13;;;;;;;6.00;5.72;;;;;;;11.92;100.00;101505.00;6102079;23;20458;-75
2022/04/14 02:46:39;;;;;;;5.63;5.32;;;;;;;12.02;100.00;101529.13;6114699;23;20013;-74
2022/04/14 02:49:05;;;;;;;5.53;5.22;;;;;;;11.96;100.00;101519.75;6099327;23;20026;-74
2022/04/14 02:51:32;;;;;;;5.18;4.88;;;;;;;12.00;100.00;101528.34;6107071;23;21054;-74
2022/04/14 02:53:58;;;;;;;5.22;4.93;;;;;;;11.97;100.00;101530.19;6100946;23;20085;-74
2022/04/14 02:56:25;;;;;;;6.25;5.95;;;;;;;11.76;100.00;101499.53;6095309;23;20097;-74
2022/04/14 02:58:51;;;;;;;6.15;5.85;;;;;;;11.93;100.00;101519.88;6107482;23;20036;-74
2022/04/14 03:01:17;;;;;;;6.82;6.43;;;;;;;11.91;100.00;101512.06;6100464;23;20547;-74
2022/04/14 03:03:44;;;;;;;4.85;4.63;;;;;;;11.73;100.00;101491.81;6105101;23;20021;-75
2022/04/14 03:06:10;;;;;;;5.60;5.30;;;;;;;11.68;100.00;101497.25;6098895;23;20033;-75
2022/04/14 03:08:37;;;;;;;4.97;4.78;;;;;;;11.82;100.00;101495.78;6098908;23;20024;-74
2022/04/14 03:11:03;;;;;;;5.05;4.85;;;;;;;11.78;100.00;101505.59;6103269;23;20481;-75
2022/04/14 03:13:30;;;;;;;5.97;5.68;;;;;;;11.39;100.00;101435.47;6097874;23;20076;-74
2022/04/14 03:15:56;;;;;;;5.28;4.97;;;;;;;11.72;100.00;101500.59;6106907;23;20029;-75
2022/04/14 03:18:23;;;;;;;6.82;6.45;;;;;;;11.55;100.00;101485.59;6104004;23;20017;-75
2022/04/14 03:20:49;;;;;;;5.22;5.03;;;;;;;11.08;100.00;101417.53;6106621;23;20057;-74
2022/04/14 03:23:15;;;;;;;6.47;6.07;;;;;;;11.69;100.00;101529.69;6105928;23;19997;-72
2022/04/14 03:25:43;;;;;;;6.25;5.85;;;;;;;10.89;100.00;101425.34;6095136;23;20087;-75
2022/04/14 03:28:09;;;;;;;5.53;5.18;;;;;;;10.69;100.00;101413.03;6110772;23;20018;-74
2022/04/14 03:30:36;;;;;;;5.75;5.20;;;;;;;11.62;100.00;101536.13;6095259;23;20068;-74
2022/04/14 03:33:02;;;;;;;5.00;4.80;;;;;;;11.64;100.00;101537.75;6116158;23;20032;-74
2022/04/14 03:35:29;;;;;;;6.07;5.40;;;;;;;11.66;100.00;101538.53;6109707;23;20026;-74
2022/04/14 03:37:56;;;;;;;5.15;4.93;;;;;;;11.35;100.00;101481.19;6099349;23;20096;-74
2022/04/14 03:40:22;;;;;;;7.38;6.97;;;;;;;10.62;100.00;101357.28;6109111;23;20018;-75
2022/04/14 03:42:49;;;;;;;5.60;5.20;;;;;;;11.11;100.00;101423.50;6124883;23;20035;-75
2022/04/14 03:45:15;;;;;;;6.38;6.07;;;;;;;11.57;100.00;101500.34;6112009;23;20030;-74
2022/04/14 03:47:42;;;;;;;4.70;4.50;;;;;;;11.44;100.00;101483.41;6120437;23;20016;-75
2022/04/14 03:50:08;;;;;;;5.20;5.00;;;;;;;11.34;100.00;101477.69;6104791;23;20088;-74
2022/04/14 03:52:35;;;;;;;5.55;5.28;;;;;;;10.92;100.00;101402.41;6112024;23;20009;-74
2022/04/14 03:55:01;;;;;;;4.95;4.75;;;;;;;11.37;100.00;101497.75;6102971;23;20471;-74
2022/04/14 03:57:28;;;;;;;5.75;5.45;;;;;;;11.16;100.00;101455.72;6111969;23;20780;-74
2022/04/14 03:59:54;;;;;;;5.47;5.18;;;;;;;11.08;100.00;101476.16;6102039;23;20025;-74
2022/04/14 04:02:21;;;;;;;7.47;7.07;;;;;;;11.24;100.00;101496.53;6110549;23;20053;-74
2022/04/14 04:04:47;;;;;;;4.88;4.68;;;;;;;11.36;100.00;101512.63;6082050;23;20082;-74
2022/04/14 04:07:14;;;;;;;5.60;5.40;;;;;;;11.35;100.00;101510.09;6105244;23;20096;-74
2022/04/14 04:09:40;;;;;;;5.15;4.90;;;;;;;11.35;100.00;101515.34;6111133;23;20033;-75
2022/04/14 04:12:07;;;;;;;5.43;5.03;;;;;;;11.61;100.00;101551.03;6113988;23;20521;-74
2022/04/14 04:14:34;;;;;;;4.60;4.40;;;;;;;11.53;100.00;101572.41;6090129;23;20041;-74
2022/04/14 04:17:01;;;;;;;4.72;4.53;;;;;;;11.51;100.00;101547.94;6086462;23;20108;-74
2022/04/14 04:19:27;;;;;;;6.25;5.95;;;;;;;11.46;100.00;101562.19;6111020;23;20096;-74
2022/04/14 04:21:53;;;;;;;5.13;4.93;;;;;;;11.04;100.00;101503.47;6092388;23;20026;-74
2022/04/14 04:24:20;;;;;;;7.57;7.22;;;;;;;11.28;100.00;101556.78;6105382;23;20025;-74
2022/04/14 04:26:46;;;;;;;5.03;4.82;;;;;;;11.04;100.00;101518.38;6092380;23;20088;-74
2022/04/14 04:29:13;;;;;;;5.70;5.45;;;;;;;11.17;100.00;101565.13;6095244;23;20353;-74
2022/04/14 04:31:39;;;;;;;5.70;5.40;;;;;;;10.96;100.00;101539.72;6115356;23;20029;-75
2022/04/14 04:34:06;;;;;;;6.22;5.82;;;;;;;10.90;100.00;101525.03;6099266;23;20028;-74
2022/04/14 04:36:34;;;;;;;4.88;4.68;;;;;;;10.87;100.00;101527.81;6078720;23;20033;-74
2022/04/14 04:39:01;;;;;;;4.95;4.75;;;;;;;10.76;100.00;101530.88;6120360;23;20422;-74
2022/04/14 04:41:29;;;;;;;6.43;6.13;;;;;;;11.03;100.00;101571.84;6110484;23;20020;-75
2022/04/14 04:43:55;;;;;;;5.15;4.95;;;;;;;10.79;100.00;101550.91;6100478;23;20092;-74
2022/04/14 04:46:22;;;;;;;7.20;6.85;;;;;;;10.79;100.00;101553.53;6114201;23;20018;-74
2022/04/14 04:48:49;;;;;;;4.95;4.75;;;;;;;10.80;100.00;101552.59;6110661;23;20029;-74
2022/04/14 04:51:16;;;;;;;7.25;6.65;;;;;;;10.82;100.00;101566.50;6115803;23;20656;-74
2022/04/14 04:53:43;;;;;;;7.53;6.20;;;;;;;10.72;100.00;101538.91;6112858;23;20430;-74
2022/04/14 04:56:09;;;;;;;5.07;4.88;;;;;;;10.85;100.00;101570.81;6107022;23;20077;-75
2022/04/14 04:58:36;;;;;;;5.63;5.22;;;;;;;10.88;100.00;101579.41;6111241;23;20020;-74
2022/04/14 05:01:03;;;;;;;5.53;5.22;;;;;;;10.68;100.00;101543.41;6113889;23;20556;-75
2022/04/14 05:03:29;;;;;;;5.30;5.10;;;;;;;10.93;100.00;101585.34;6106750;23;20526;-75
2022/04/14 05:05:56;;;;;;;6.15;5.78;;;;;;;10.57;100.00;101514.13;6113859;23;20022;-74
2022/04/14 05:08:22;;;;;;;6.70;6.40;;;;;;;11.10;100.00;101604.81;6117158;23;20496;-74
2022/04/14 05:10:49;;;;;;;4.90;4.70;;;;;;;10.38;100.00;101480.75;6121060;23;20029;-74
2022/04/14 05:13:15;;;;;;;6.30;6.00;;;;;;;11.00;100.00;101579.84;6117666;23;20009;-74
2022/04/14 05:15:42;;;;;;;6.03;5.65;;;;;;;10.81;100.00;101541.19;6115599;23;20061;-75
2022/04/14 05:18:09;;;;;;;4.65;4.45;;;;;;;11.16;100.00;101615.09;6109898;23;20566;-75
2022/04/14 05:20:36;;;;;;;5.88;5.57;;;;;;;11.20;100.00;101607.94;6117645;23;20030;-74
2022/04/14 05:23:06;;;;;;;5.03;4.75;;;;;;;11.06;100.00;101583.06;6113794;23;20406;-74
2022/04/14 05:25:33;;;;;;;4.90;4.70;;;;;;;10.82;100.00;101532.38;6110292;23;20029;-75
2022/04/14 05:27:59;;;;;;;5.15;4.95;;;;;;;10.95;100.00;101554.63;6124042;23;20045;-74
2022/04/14 05:30:25;;;;;;;6.40;6.10;;;;;;;11.07;100.00;101582.16;6111191;23;20085;-74
2022/04/14 05:32:52;;;;;;;5.43;5.13;;;;;;;11.22;100.00;101616.63;6113706;23;20090;-74
2022/04/14 05:35:18;;;;;;;6.95;6.43;;;;;;;10.74;100.00;101563.34;6086190;23;20435;-74
2022/04/14 05:37:45;;;;;;;4.75;4.55;;;;;;;10.88;100.00;101592.53;6114237;23;20052;-75
2022/04/14 05:40:11;;;;;;;5.05;4.85;;;;;;;10.92;100.00;101588.03;6116912;23;20043;-72
2022/04/14 05:42:38;;;;;;;5.60;5.30;;;;;;;9.92;100.00;101421.25;6107067;23;20005;-73
2022/04/14 05:45:05;;;;;;;5.60;5.25;;;;;;;10.76;100.00;101580.75;6115808;23;20036;-73
2022/04/14 05:47:31;;;;;;;4.90;4.70;;;;;;;10.68;100.00;101561.78;6111540;23;20013;-72
2022/04/14 05:49:57;;;;;;;4.80;4.40;;;;;;;11.18;100.00;101629.91;6112710;23;20620;-75
2022/04/14 05:52:24;;;;;;;6.50;6.20;;;;;;;11.20;100.00;101636.84;6115079;23;20028;-72
2022/04/14 05:54:50;;;;;;;5.07;4.88;;;;;;;11.12;100.00;101614.34;6100145;23;20129;-73
2022/04/14 05:57:17;;;;;;;7.40;7.00;;;;;;;10.57;100.00;101532.50;6103065;23;20444;-75
2022/04/14 05:59:43;;;;;;;5.40;5.20;;;;;;;11.13;100.00;101628.38;6107456;23;20077;-73
2022/04/14 06:02:10;;;;;;;9.07;5.38;;;;;;;10.14;100.00;101451.03;6110076;23;20014;-73
2022/04/14 06:04:36;;;;;;;4.95;4.70;;;;;;;10.89;100.00;101583.75;6092919;23;20014;-78
2022/04/14 06:07:03;;;;;;;4.63;4.43;;;;;;;11.23;100.00;101629.69;6092830;23;20024;-74
2022/04/14 06:09:30;;;;;;;5.78;5.47;;;;;;;11.06;100.00;101609.34;6112233;23;20062;-74
2022/04/14 06:11:56;;;;;;;4.90;4.65;;;;;;;10.24;100.00;101462.00;6096568;23;20113;-75
2022/04/14 06:14:24;;;;;;;4.90;4.70;;;;;;;11.32;100.00;101641.59;6070809;23;20092;-74
2022/04/14 06:16:51;;;;;;;6.45;6.15;;;;;;;11.00;100.00;101590.34;6100492;23;20100;-73
2022/04/14 06:19:18;;;;;;;7.95;4.80;;;;;;;10.84;100.00;101583.06;6101498;23;20028;-73
2022/04/14 06:21:44;;;;;;;6.65;6.30;;;;;;;10.75;100.00;101572.94;6099763;23;20013;-76
2022/04/14 06:24:10;;;;;;;5.10;4.80;;;;;;;10.87;100.00;101577.72;6095986;23;20014;-77
2022/04/14 06:26:37;;;;;;;5.18;4.88;;;;;;;11.16;100.00;101613.34;6092811;23;20019;-76
2022/04/14 06:29:04;;;;;;;5.00;4.80;;;;;;;11.44;100.00;101640.25;6103049;23;20097;-76
2022/04/14 06:31:30;;;;;;;5.32;5.03;;;;;;;11.60;100.00;101646.59;6094696;23;20058;-73
2022/04/14 06:33:57;;;;;;;7.15;6.75;;;;;;;11.16;100.00;101538.91;6086891;23;20030;-76
2022/04/14 06:36:23;;;;;;;5.57;5.28;;;;;;;11.28;100.00;101559.41;6088370;23;20361;-75
2022/04/14 06:38:50;;;;;;;5.43;5.07;;;;;;;11.44;100.00;101585.91;6079412;23;20093;-78
2022/04/14 06:41:16;;;;;;;5.93;5.53;;;;;;;11.45;100.00;101592.88;6085623;23;20472;-77
2022/04/14 06:43:42;;;;;;;6.20;5.80;;;;;;;11.23;100.00;101550.03;6090248;23;20017;-74
2022/04/14 06:46:09;;;;;;;6.10;5.65;;;;;;;11.99;100.00;101651.16;6078623;23;20025;-75
2022/04/14 06:48:35;;;;;;;4.80;4.60;;;;;;;12.02;100.00;101652.78;6085531;23;20014;-75
2022/04/14 06:51:02;;;;;;;6.38;6.07;;;;;;;12.28;100.00;101656.91;6073439;23;20081;-75
2022/04/14 06:53:29;;;;;;;5.45;5.15;;;;;;;11.25;100.00;101477.25;6082627;23;20061;-75
2022/04/14 06:55:55;;;;;;;6.43;6.13;;;;;;;12.09;100.00;101631.41;6080469;23;20047;-75
2022/04/14 06:58:22;;;;;;;5.32;5.03;;;;;;;12.09;100.00;101641.94;6064577;23;20022;-75
2022/04/14 07:00:48;;;;;;;5.20;4.97;;;;;;;10.98;100.00;101453.81;6083067;23;20014;-75
2022/04/14 07:03:15;;;;;;;5.13;4.93;;;;;;;11.86;100.00;101626.25;6087635;23;20017;-75
2022/04/14 07:05:41;;;;;;;5.20;5.00;;;;;;;10.95;100.00;101462.69;6080176;23;20055;-75
2022/04/14 07:08:08;;;;;;;6.30;5.93;;;;;;;11.77;100.00;101606.47;6095682;23;20092;-75
2022/04/14 07:10:34;;;;;;;5.63;5.32;;;;;;;11.86;100.00;101618.34;6085785;23;20053;-76
2022/04/14 07:13:00;;;;;;;7.68;7.28;;;;;;;11.97;100.00;101629.31;6072804;23;20033;-75
2022/04/14 07:15:27;;;;;;;6.40;5.90;;;;;;;11.51;100.00;101574.22;6080406;23;20105;-75
2022/04/14 07:17:54;;;;;;;7.97;7.50;;;;;;;10.83;100.00;101439.56;6077347;23;20028;-74
2022/04/14 07:20:21;;;;;;;5.32;5.10;;;;;;;11.56;100.00;101577.50;6058620;23;20037;-75
2022/04/14 07:22:50;;;;;;;4.90;4.70;;;;;;;11.72;100.00;101622.41;6086917;23;20032;-75
2022/04/14 07:25:24;;;;;;;5.40;4.90;;;;;;;11.94;100.00;101666.25;6103566;23;20005;-75
2022/04/14 07:27:52;;;;;;;5.63;5.38;;;;;;;11.88;100.00;101659.44;6104259;23;20028;-75
2022/04/14 07:30:18;;;;;;;5.50;5.20;;;;;;;11.84;100.00;101649.13;6084569;23;20009;-75
2022/04/14 07:32:45;;;;;;;5.25;5.05;;;;;;;11.38;100.00;101549.38;5994890;23;20029;-75
2022/04/14 07:35:13;;;;;;;5.43;5.00;;;;;;;11.51;100.00;101566.34;6073245;23;20030;-75
2022/04/14 07:37:39;;;;;;;5.03;4.72;;;;;;;12.10;100.00;101651.53;6085397;23;20426;-75
2022/04/14 07:40:07;;;;;;;6.45;6.13;;;;;;;12.13;100.00;101616.34;6111312;23;20036;-76
2022/04/14 07:42:38;;;;;;;5.68;5.38;;;;;;;12.37;100.00;101604.72;6079205;23;20019;-77
2022/04/14 07:45:06;;;;;;;6.78;6.47;;;;;;;12.78;100.00;101659.91;6119488;23;20047;-73
2022/04/14 07:47:41;;;;;;;4.88;4.68;;;;;;;13.09;100.00;101662.88;6104798;23;20029;-74
2022/04/14 07:50:09;;;;;;;6.53;5.93;;;;;;;13.48;100.00;101660.16;6105727;23;20082;-75
2022/04/14 07:52:49;;;;;;;5.68;5.35;;;;;;;13.61;100.00;101678.00;6093840;23;20037;-75
2022/04/14 07:55:29;;;;;;;6.07;5.50;;;;;;;13.30;100.00;101682.13;6118246;23;20080;-75
2022/04/14 07:57:58;;;;;;;7.22;6.75;;;;;;;13.56;100.00;101686.16;6108017;23;20029;-75
2022/04/14 08:00:26;;;;;;;5.88;5.57;;;;;;;12.95;97.84;101640.69;6110864;23;20009;-75
2022/04/14 08:02:58;;;;;;;6.60;6.30;;;;;;;13.68;98.28;101682.06;6107815;23;20025;-74
2022/04/14 08:05:36;;;;;;;6.88;6.35;;;;;;;13.68;96.52;101609.03;6104207;23;20036;-75
2022/04/14 08:08:04;;;;;;;7.95;7.45;;;;;;;14.15;91.90;101662.94;6104671;23;20371;-77
2022/04/14 08:10:31;;;;;;;5.65;5.35;;;;;;;14.35;92.04;101688.31;6101563;23;20077;-75
2022/04/14 08:12:58;;;;;;;6.95;6.55;;;;;;;14.32;89.02;101664.72;6114850;23;20098;-75
2022/04/14 08:15:26;;;;;;;5.72;5.43;;;;;;;14.27;89.27;101679.94;6124477;23;20032;-75
2022/04/14 08:17:52;;;;;;;7.53;7.05;;;;;;;14.44;88.16;101655.31;6095952;23;20029;-74
2022/04/14 08:20:19;;;;;;;4.90;4.70;;;;;;;13.57;86.58;101469.81;6116043;23;20022;-74
2022/04/14 08:22:54;;;;;;;5.53;5.22;;;;;;;15.09;81.34;101685.25;6104242;23;20143;-75
2022/04/14 08:25:21;;;;;;;5.90;5.60;;;;;;;15.39;79.13;101686.25;6108789;23;20013;-75
2022/04/14 08:27:49;;;;;;;6.10;5.80;;;;;;;15.26;77.19;101631.44;6101360;23;20021;-75
2022/04/14 08:30:17;;;;;;;5.63;5.32;;;;;;;15.52;74.65;101690.78;6081663;23;20013;-75
2022/04/14 08:32:45;;;;;;;5.50;5.28;;;;;;;14.99;75.82;101669.97;6097111;23;20136;-76
2022/04/14 08:35:13;;;;;;;5.95;5.65;;;;;;;14.86;77.62;101668.03;6090993;23;20021;-75
2022/04/14 08:37:41;;;;;;;5.47;5.28;;;;;;;15.05;76.68;101691.63;6084222;23;20114;-76
2022/04/14 08:40:10;;;;;;;6.20;5.90;;;;;;;15.38;77.40;101690.72;6080893;23;20084;-75
2022/04/14 08:42:39;;;;;;;5.60;5.30;;;;;;;15.24;76.50;101677.41;6060994;23;20029;-76
2022/04/14 08:45:12;;;;;;;6.53;6.22;;;;;;;15.21;76.13;101629.97;6101307;23;20683;-75
2022/04/14 08:47:40;;;;;;;6.20;5.75;;;;;;;15.47;76.19;101703.41;6057983;23;20010;-75
2022/04/14 08:50:12;;;;;;;6.50;6.20;;;;;;;15.52;76.49;101666.97;6092791;23;20696;-75
2022/04/14 08:52:40;;;;;;;6.45;5.95;;;;;;;15.36;74.56;101651.13;6091313;23;20072;-73
2022/04/14 08:55:09;;;;;;;5.85;5.55;;;;;;;15.73;76.61;101698.44;6084535;23;20166;-75
2022/04/14 08:57:36;;;;;;;5.63;5.32;;;;;;;15.36;75.95;101666.13;6068051;23;20013;-76
2022/04/14 09:00:06;;;;;;;7.88;7.38;;;;;;;15.77;75.35;101677.94;6093067;23;20438;-74
2022/04/14 09:02:34;;;;;;;5.22;5.00;;;;;;;16.01;75.30;101695.03;6091508;23;20217;-76
2022/04/14 09:05:02;;;;;;;7.10;6.47;;;;;;;16.11;73.48;101680.28;6079937;23;20515;-75
2022/04/14 09:07:29;;;;;;;6.18;5.78;;;;;;;16.01;75.35;101689.75;6084866;23;20024;-76
2022/04/14 09:09:55;;;;;;;7.72;7.18;;;;;;;16.38;74.08;101687.53;6067785;23;20032;-75
2022/04/14 09:12:22;;;;;;;5.55;5.25;;;;;;;16.04;76.36;101688.72;6086132;23;20466;-75
2022/04/14 09:14:49;;;;;;;6.13;5.82;;;;;;;15.77;76.05;101591.44;6077219;23;20097;-76
2022/04/14 09:17:15;;;;;;;5.82;5.32;;;;;;;15.87;73.67;101589.94;6107084;23;20127;-75
2022/04/14 09:19:42;;;;;;;5.40;5.00;;;;;;;15.92;73.43;101622.31;6098169;23;20086;-74
2022/04/14 09:22:10;;;;;;;5.50;5.20;;;;;;;16.17;73.99;101691.47;6072342;23;20077;-75
2022/04/14 09:24:38;;;;;;;6.40;5.90;;;;;;;16.02;73.73;101662.34;6089706;23;20020;-76
2022/04/14 09:27:06;;;;;;;7.55;7.15;;;;;;;16.61;71.98;101662.25;6086470;23;20043;-75
2022/04/14 09:29:33;;;;;;;5.63;5.32;;;;;;;17.00;70.08;101681.09;6067787;23;20022;-76
2022/04/14 09:32:00;;;;;;;7.32;6.93;;;;;;;17.38;68.07;101683.94;6113325;23;20088;-76
2022/04/14 09:34:48;;;;;;;5.78;5.38;;;;;;;17.21;66.75;101676.22;6080307;23;20043;-76
2022/04/14 09:37:15;;;;;;;5.90;5.60;;;;;;;17.71;65.34;101680.84;6105374;23;20017;-76
2022/04/14 09:40:14;;;;;;;5.93;5.63;;;;;;;17.78;64.68;101606.09;6091974;23;20053;-75
2022/04/14 09:42:43;;;;;;;5.95;5.65;;;;;;;17.63;62.80;101600.88;6109393;23;20023;-76
2022/04/14 09:45:46;;;;;;;7.30;6.68;;;;;;;17.50;62.79;101515.94;6069323;23;20032;-75
2022/04/14 09:48:17;;;;;;;5.40;5.10;;;;;;;17.48;63.21;101652.31;6076089;23;20005;-75
2022/04/14 09:50:47;;;;;;;7.03;6.40;;;;;;;18.08;60.67;101669.56;6091302;23;20093;-76
2022/04/14 09:53:18;;;;;;;7.20;6.60;;;;;;;18.44;59.95;101675.97;6106358;23;20078;-75
2022/04/14 09:55:51;;;;;;;5.80;5.45;;;;;;;17.83;60.72;101670.38;6088369;23;20014;-75
2022/04/14 09:58:22;;;;;;;6.13;5.80;;;;;;;18.16;59.48;101615.94;6101195;23;20213;-74
2022/04/14 10:00:50;;;;;;;6.10;5.80;;;;;;;18.68;60.35;101660.97;6058998;23;20021;-73
2022/04/14 10:03:30;;;;;;;6.20;5.78;;;;;;;18.99;59.53;101663.25;6112176;23;20098;-76
2022/04/14 10:05:59;;;;;;;7.70;7.18;;;;;;;19.15;57.50;101663.84;6072030;23;20014;-76
2022/04/14 10:08:29;;;;;;;7.13;6.63;;;;;;;19.28;55.91;101597.25;6085886;23;20077;-76
2022/04/14 10:11:06;;;;;;;9.02;8.15;;;;;;;18.81;54.41;101634.38;6083668;23;20189;-75
2022/04/14 10:13:38;;;;;;;7.00;6.40;;;;;;;19.03;54.21;101631.00;6092187;23;20384;-75
2022/04/14 10:16:07;;;;;;;7.70;7.20;;;;;;;19.15;55.98;101615.09;6111228;23;20490;-76
2022/04/14 10:18:33;;;;;;;6.45;6.05;;;;;;;18.71;55.20;101521.63;6087724;23;20014;-76
2022/04/14 10:21:00;;;;;;;9.15;8.48;;;;;;;19.71;54.88;101634.00;6129581;23;20032;-74
2022/04/14 10:23:27;;;;;;;6.95;6.50;;;;;;;19.75;54.53;101600.84;6083741;23;20006;-76
2022/04/14 10:25:55;;;;;;;7.78;7.28;;;;;;;19.61;55.35;101630.31;6106594;23;20037;-75
2022/04/14 10:28:25;;;;;;;8.88;6.63;;;;;;;19.58;54.24;101595.91;6054236;23;20009;-76
2022/04/14 10:30:55;;;;;;;8.40;7.72;;;;;;;20.19;53.60;101633.84;6084867;23;20382;-76
2022/04/14 10:33:22;;;;;;;6.70;6.28;;;;;;;20.41;53.36;101632.16;6088729;23;20014;-76
2022/04/14 10:35:50;;;;;;;7.40;6.80;;;;;;;20.74;51.83;101636.63;6085497;23;20261;-76
2022/04/14 10:38:38;;;;;;;8.10;7.28;;;;;;;19.13;54.25;101586.78;6094525;23;20236;-76
2022/04/14 10:41:14;;;;;;;8.60;8.00;;;;;;;18.81;57.30;101601.63;6076392;23;20058;-76
2022/04/14 10:43:42;;;;;;;6.68;6.18;;;;;;;19.04;57.47;101630.06;6104992;23;20026;-75
2022/04/14 10:46:08;;;;;;;8.07;7.32;;;;;;;19.41;57.19;101621.16;6080796;23;20066;-75
2022/04/14 10:48:39;;;;;;;6.80;6.30;;;;;;;19.60;55.38;101610.78;6105880;23;20013;-75
2022/04/14 10:51:28;;;;;;;6.78;6.38;;;;;;;18.55;56.35;101633.53;6090344;23;20033;-76
2022/04/14 10:53:56;;;;;;;7.60;6.97;;;;;;;19.13;55.92;101629.34;6088087;23;20037;-75
2022/04/14 10:56:42;;;;;;;6.15;5.85;;;;;;;19.64;55.32;101622.06;6065832;23;20073;-76
2022/04/14 10:59:13;;;;;;;10.70;6.38;;;;;;;19.74;54.99;101607.09;6056600;23;20028;-75
2022/04/14 11:01:46;;;;;;;7.45;6.75;;;;;;;20.47;52.17;101605.84;6103123;23;20085;-75
2022/04/14 11:04:23;;;;;;;6.80;6.40;;;;;;;20.42;49.09;101564.53;6075805;23;20644;-75
2022/04/14 11:06:51;;;;;;;6.50;6.10;;;;;;;21.11;46.61;101612.31;6080797;23;20108;-75
2022/04/14 11:09:42;;;;;;;7.00;6.50;;;;;;;20.83;47.08;101613.72;6100691;23;20041;-76
2022/04/14 11:12:11;;;;;;;8.30;7.80;;;;;;;19.42;49.16;101607.69;6080306;23;20487;-76
2022/04/14 11:15:03;;;;;;;6.28;5.93;;;;;;;19.10;52.93;101608.31;6087694;23;20044;-77
2022/04/14 11:17:42;;;;;;;6.22;5.93;;;;;;;19.16;52.84;101604.31;6075072;23;20061;-76
2022/04/14 11:20:18;;;;;;;6.22;5.90;;;;;;;18.36;55.76;101574.66;6074838;23;20564;-76
2022/04/14 11:23:07;;;;;;;6.35;5.90;;;;;;;19.78;53.48;101602.41;6101764;23;20028;-76
2022/04/14 11:25:49;;;;;;;7.40;6.65;;;;;;;20.19;49.63;101607.19;6108188;23;20065;-76